^^
Saratoga-Weather Station Historical Data
Daily Summary for June 23, 2022 Units:  Metric    English   Both
Daily Weekly Monthly Yearly Custom
  High: Low: Average:
Temperature: 30.3 °C 16.4 °C 22.8 °C
Dew Point: 21 °C 15.6 °C 18.2 °C
Humidity: 96% 48% 77%
Wind Speed: 20.9km/h 0km/h 1.4km/h
Wind Gust: 35.4km/h - -
Wind- - SSE
Pressure: 1011.2 hPa 1005.4 hPa -
Precipitation: 9.7 mm    
Historical Graphs
 
 
Tabular Data for June 23, 2022
Time Temperature Dew Point Pressure Wind Wind Speed Wind Gust Humidity Rainfall Rate (Hourly) solar
00:04 19.7 °C 18.4 °C 1010.2 hPa Calm     92% 0.0 mm 0 W/m2
00:09 19.7 °C 18.4 °C 1010.2 hPa Calm     92% 0.0 mm 0 W/m2
00:14 19.7 °C 18.4 °C 1010.2 hPa Calm     92% 0.0 mm 0 W/m2
00:19 19.6 °C 18.3 °C 1010.2 hPa Calm     92% 0.0 mm 0 W/m2
00:24 19.5 °C 18.2 °C 1010.2 hPa Calm     92% 0.0 mm 0 W/m2
00:29 19.4 °C 18.1 °C 1010.2 hPa Calm     92% 0.0 mm 0 W/m2
00:34 19.3 °C 18 °C 1010.2 hPa Calm     92% 0.0 mm 0 W/m2
00:39 19.3 °C 18 °C 1010.2 hPa Calm     92% 0.0 mm 0 W/m2
00:44 19.2 °C 17.9 °C 1010.2 hPa Calm     92% 0.0 mm 0 W/m2
00:49 19.1 °C 17.8 °C 1010.2 hPa Calm     92% 0.0 mm 0 W/m2
00:54 19 °C 17.7 °C 1010.2 hPa Calm     92% 0.0 mm 0 W/m2
00:59 18.9 °C 17.7 °C 1010.2 hPa Calm     93% 0.0 mm 0 W/m2
01:04 18.9 °C 17.7 °C 1010.2 hPa Calm     93% 0.0 mm 0 W/m2
01:09 18.8 °C 17.6 °C 1010.2 hPa Calm     93% 0.0 mm 0 W/m2
01:14 18.8 °C 17.6 °C 1010.2 hPa Calm     93% 0.0 mm 0 W/m2
01:19 18.7 °C 17.5 °C 1010.2 hPa Calm     93% 0.0 mm 0 W/m2
01:24 18.7 °C 17.5 °C 1010.2 hPa Calm     93% 0.0 mm 0 W/m2
01:29 18.6 °C 17.4 °C 1010.2 hPa Calm     93% 0.0 mm 0 W/m2
01:35 18.5 °C 17.3 °C 1010.2 hPa Calm     93% 0.0 mm 0 W/m2
01:40 18.4 °C 17.2 °C 1010.2 hPa Calm     93% 0.0 mm 0 W/m2
01:45 18.4 °C 17.2 °C 1010.2 hPa Calm     93% 0.0 mm 0 W/m2
01:50 18.3 °C 17.1 °C 1010.2 hPa Calm     93% 0.0 mm 0 W/m2
01:55 18.2 °C 17.2 °C 1010.2 hPa Calm     94% 0.0 mm 0 W/m2
02:00 18.2 °C 17.2 °C 1010.2 hPa Calm     94% 0.0 mm 0 W/m2
02:05 18.1 °C 17.1 °C 1010.2 hPa Calm     94% 0.0 mm 0 W/m2
02:10 18 °C 17 °C 1010.2 hPa Calm     94% 0.0 mm 0 W/m2
02:15 18 °C 17 °C 1010.2 hPa Calm     94% 0.0 mm 0 W/m2
02:20 17.9 °C 16.9 °C 1010.2 hPa Calm     94% 0.0 mm 0 W/m2
02:25 17.9 °C 16.9 °C 1010.2 hPa Calm     94% 0.0 mm 0 W/m2
02:30 17.8 °C 16.8 °C 1010.2 hPa Calm     94% 0.0 mm 0 W/m2
02:35 17.8 °C 16.8 °C 1010.2 hPa Calm     94% 0.0 mm 0 W/m2
02:40 17.8 °C 16.8 °C 1010.2 hPa Calm     94% 0.0 mm 0 W/m2
02:45 17.7 °C 16.7 °C 1010.2 hPa Calm     94% 0.0 mm 0 W/m2
02:50 17.7 °C 16.7 °C 1009.8 hPa Calm     94% 0.0 mm 0 W/m2
02:55 17.6 °C 16.6 °C 1010.2 hPa Calm     94% 0.0 mm 0 W/m2
03:00 17.6 °C 16.8 °C 1009.8 hPa Calm     95% 0.0 mm 0 W/m2
03:05 17.6 °C 16.8 °C 1010.2 hPa Calm     95% 0.0 mm 0 W/m2
03:10 17.5 °C 16.7 °C 1010.2 hPa Calm     95% 0.0 mm 0 W/m2
03:15 17.5 °C 16.7 °C 1010.2 hPa Calm     95% 0.0 mm 0 W/m2
03:20 17.4 °C 16.6 °C 1010.2 hPa Calm     95% 0.0 mm 0 W/m2
03:25 17.4 °C 16.6 °C 1010.2 hPa Calm     95% 0.0 mm 0 W/m2
03:30 17.3 °C 16.5 °C 1010.2 hPa Calm     95% 0.0 mm 0 W/m2
03:35 17.3 °C 16.5 °C 1010.2 hPa Calm     95% 0.0 mm 0 W/m2
03:40 17.2 °C 16.4 °C 1010.2 hPa Calm     95% 0.0 mm 0 W/m2
03:45 17.1 °C 16.3 °C 1010.2 hPa Calm   3.2 km/h 95% 0.0 mm 0 W/m2
03:50 17.1 °C 16.3 °C 1010.2 hPa SSE 1.4 km/h 1.6 km/h 95% 0.0 mm 0 W/m2
03:55 17.1 °C 16.3 °C 1010.2 hPa Calm   3.2 km/h 95% 0.0 mm 0 W/m2
04:00 16.9 °C 16.1 °C 1010.2 hPa Calm   1.6 km/h 95% 0.0 mm 0 W/m2
04:05 16.9 °C 16.1 °C 1010.2 hPa Calm     95% 0.0 mm 0 W/m2
04:10 16.9 °C 16.1 °C 1010.2 hPa Calm   1.6 km/h 95% 0.0 mm 0 W/m2
04:15 16.9 °C 16.1 °C 1010.2 hPa Calm     95% 0.0 mm 0 W/m2
04:20 16.9 °C 16.1 °C 1010.2 hPa Calm     95% 0.0 mm 0 W/m2
04:25 16.8 °C 16 °C 1010.2 hPa Calm     95% 0.0 mm 0 W/m2
04:30 16.8 °C 16 °C 1010.2 hPa Calm     95% 0.0 mm 0 W/m2
04:35 16.8 °C 16 °C 1010.2 hPa Calm     95% 0.0 mm 0 W/m2
04:40 16.8 °C 16 °C 1010.2 hPa Calm     95% 0.0 mm 0 W/m2
04:45 16.8 °C 16 °C 1010.2 hPa Calm     95% 0.0 mm 0 W/m2
04:50 16.7 °C 15.9 °C 1010.2 hPa Calm     95% 0.0 mm 0 W/m2
04:55 16.7 °C 15.9 °C 1010.2 hPa Calm     95% 0.0 mm 0 W/m2
05:00 16.6 °C 15.8 °C 1010.2 hPa Calm     95% 0.0 mm 0 W/m2
05:05 16.6 °C 16 °C 1010.2 hPa Calm     96% 0.0 mm 0 W/m2
05:10 16.6 °C 16 °C 1010.2 hPa Calm     96% 0.0 mm 0 W/m2
05:15 16.6 °C 16 °C 1010.2 hPa Calm     96% 0.0 mm 0 W/m2
05:20 16.6 °C 16 °C 1010.5 hPa Calm     96% 0.0 mm 0 W/m2
05:25 16.5 °C 15.9 °C 1010.5 hPa Calm     96% 0.0 mm 0 W/m2
05:30 16.4 °C 15.8 °C 1010.5 hPa Calm     96% 0.0 mm 0 W/m2
05:35 16.4 °C 15.6 °C 1010.5 hPa Calm     95% 0.0 mm 0 W/m2
05:40 16.4 °C 15.8 °C 1010.8 hPa Calm     96% 0.0 mm 5 W/m2
05:45 16.4 °C 15.8 °C 1010.5 hPa Calm     96% 0.0 mm 5 W/m2
05:50 16.4 °C 15.8 °C 1010.5 hPa Calm     96% 0.0 mm 7 W/m2
05:55 16.4 °C 15.8 °C 1010.5 hPa Calm     96% 0.0 mm 11 W/m2
06:00 16.5 °C 15.9 °C 1010.5 hPa Calm     96% 0.0 mm 11 W/m2
06:05 16.5 °C 15.9 °C 1010.5 hPa Calm     96% 0.0 mm 11 W/m2
06:10 16.5 °C 15.9 °C 1010.5 hPa Calm     96% 0.0 mm 11 W/m2
06:15 16.4 °C 15.8 °C 1010.5 hPa Calm     96% 0.0 mm 14 W/m2
06:20 16.4 °C 15.8 °C 1010.5 hPa Calm     96% 0.0 mm 21 W/m2
06:25 16.4 °C 15.8 °C 1010.2 hPa Calm   1.6 km/h 96% 0.0 mm 32 W/m2
06:30 16.4 °C 15.8 °C 1010.2 hPa Calm     96% 0.0 mm 42 W/m2
06:35 16.6 °C 16 °C 1010.2 hPa Calm     96% 0.0 mm 49 W/m2
06:40 16.7 °C 16.1 °C 1010.5 hPa Calm     96% 0.0 mm 51 W/m2
06:45 16.8 °C 16.2 °C 1010.5 hPa Calm     96% 0.0 mm 47 W/m2
06:50 17 °C 16.4 °C 1010.5 hPa Calm   4.8 km/h 96% 0.0 mm 49 W/m2
06:55 17.1 °C 16.5 °C 1010.5 hPa ENE 1.4 km/h 1.6 km/h 96% 0.0 mm 67 W/m2
07:00 17.1 °C 16.5 °C 1010.5 hPa ENE 1.4 km/h 4.8 km/h 96% 0.0 mm 79 W/m2
07:05 17.2 °C 16.6 °C 1010.5 hPa NE 4.7 km/h 4.8 km/h 96% 0.0 mm 81 W/m2
07:10 17.3 °C 16.7 °C 1010.5 hPa East 1.4 km/h 4.8 km/h 96% 0.0 mm 76 W/m2
07:15 17.5 °C 16.9 °C 1010.8 hPa ENE 1.4 km/h 3.2 km/h 96% 0.0 mm 76 W/m2
07:20 17.6 °C 17 °C 1010.8 hPa East 3.2 km/h 4.8 km/h 96% 0.0 mm 137 W/m2
07:25 17.8 °C 17.2 °C 1010.8 hPa Calm   1.6 km/h 96% 0.0 mm 160 W/m2
07:30 18.2 °C 17.6 °C 1010.8 hPa NE 3.2 km/h 4.8 km/h 96% 0.0 mm 167 W/m2
07:35 18.6 °C 17.8 °C 1010.8 hPa Calm   3.2 km/h 95% 0.0 mm 179 W/m2
07:40 18.9 °C 17.9 °C 1010.8 hPa Calm   3.2 km/h 94% 0.0 mm 193 W/m2
07:45 19.3 °C 18.1 °C 1010.8 hPa Calm   1.6 km/h 93% 0.0 mm 204 W/m2
07:50 19.7 °C 18 °C 1010.8 hPa NE 3.2 km/h 3.2 km/h 90% 0.0 mm 214 W/m2
07:55 20.1 °C 18 °C 1010.8 hPa NE 1.4 km/h 3.2 km/h 88% 0.0 mm 227 W/m2
08:00 20.3 °C 18.2 °C 1010.8 hPa NE 1.4 km/h 3.2 km/h 88% 0.0 mm 241 W/m2
08:05 20.6 °C 18.2 °C 1010.8 hPa East 1.4 km/h 3.2 km/h 86% 0.0 mm 255 W/m2
08:10 20.7 °C 18.3 °C 1010.8 hPa East 1.4 km/h 3.2 km/h 86% 0.0 mm 269 W/m2
08:15 21.1 °C 18.5 °C 1011.2 hPa ENE 1.4 km/h 8 km/h 85% 0.0 mm 279 W/m2
08:20 21.4 °C 18.6 °C 1011.2 hPa East 1.4 km/h 3.2 km/h 84% 0.0 mm 292 W/m2
08:25 21.7 °C 18.7 °C 1011.2 hPa ENE 1.4 km/h 8 km/h 83% 0.0 mm 183 W/m2
08:30 21.8 °C 18.6 °C 1011.2 hPa East 3.2 km/h 4.8 km/h 82% 0.0 mm 146 W/m2
08:35 21.7 °C 18.7 °C 1011.2 hPa SE 1.4 km/h 3.2 km/h 83% 0.0 mm 84 W/m2
08:40 21.8 °C 18.6 °C 1011.2 hPa ESE 3.2 km/h 4.8 km/h 82% 0.0 mm 84 W/m2
08:45 21.9 °C 18.7 °C 1010.8 hPa East 3.2 km/h 4.8 km/h 82% 0.0 mm 77 W/m2
08:50 21.9 °C 18.5 °C 1011.2 hPa NNE 1.4 km/h 6.4 km/h 81% 0.0 mm 81 W/m2
08:55 21.8 °C 18.4 °C 1011.2 hPa ESE 6.4 km/h 6.4 km/h 81% 0.0 mm 81 W/m2
09:00 21.8 °C 18.6 °C 1011.2 hPa ESE 4.7 km/h 6.4 km/h 82% 0.0 mm 84 W/m2
09:05 22.1 °C 18.7 °C 1011.2 hPa ENE 4.7 km/h 9.7 km/h 81% 0.0 mm 95 W/m2
09:10 22.2 °C 18.8 °C 1011.2 hPa Calm   6.4 km/h 81% 0.0 mm 93 W/m2
09:15 22.3 °C 18.9 °C 1011.2 hPa East 3.2 km/h 4.8 km/h 81% 0.0 mm 105 W/m2
09:21 22.4 °C 19.2 °C 1011.2 hPa ENE 3.2 km/h 4.8 km/h 82% 0.0 mm 130 W/m2
09:26 22.7 °C 19.1 °C 1011.2 hPa East 4.7 km/h 4.8 km/h 80% 0.0 mm 109 W/m2
09:31 22.8 °C 19 °C 1011.2 hPa NNW 3.2 km/h 4.8 km/h 79% 0.0 mm 93 W/m2
09:36 22.7 °C 19.1 °C 1011.2 hPa Calm   1.6 km/h 80% 0.0 mm 116 W/m2
09:41 22.9 °C 19.3 °C 1011.2 hPa ENE 1.4 km/h 4.8 km/h 80% 0.0 mm 135 W/m2
09:46 23.2 °C 19.1 °C 1010.8 hPa Calm   6.4 km/h 78% 0.0 mm 148 W/m2
09:51 22.9 °C 18.9 °C 1010.8 hPa North 3.2 km/h 8 km/h 78% 0.0 mm 169 W/m2
09:56 22.8 °C 19 °C 1011.2 hPa Calm   1.6 km/h 79% 0.0 mm 195 W/m2
10:01 23.2 °C 19.4 °C 1010.8 hPa ESE 4.7 km/h 8 km/h 79% 0.0 mm 378 W/m2
10:06 23.6 °C 19.5 °C 1010.8 hPa NE 4.7 km/h 4.8 km/h 78% 0.0 mm 578 W/m2
10:11 23.8 °C 19.5 °C 1010.8 hPa ESE 3.2 km/h 9.7 km/h 77% 0.0 mm 621 W/m2
10:16 23.8 °C 19.3 °C 1010.8 hPa ENE 6.4 km/h 6.4 km/h 76% 0.0 mm 186 W/m2
10:21 23.8 °C 19.5 °C 1010.8 hPa East 1.4 km/h 9.7 km/h 77% 0.0 mm 250 W/m2
10:26 24 °C 19.9 °C 1010.8 hPa East 6.4 km/h 6.4 km/h 78% 0.0 mm 499 W/m2
10:31 24.2 °C 19.9 °C 1010.8 hPa East 3.2 km/h 4.8 km/h 77% 0.0 mm 638 W/m2
10:36 24.3 °C 19.8 °C 1010.8 hPa Calm   9.7 km/h 76% 0.0 mm 682 W/m2
10:41 24.4 °C 19.7 °C 1010.8 hPa ESE 1.4 km/h 4.8 km/h 75% 0.0 mm 186 W/m2
10:46 24.2 °C 19.5 °C 1010.8 hPa Calm   3.2 km/h 75% 0.0 mm 311 W/m2
10:51 24.2 °C 19.7 °C 1010.8 hPa Calm   4.8 km/h 76% 0.0 mm 260 W/m2
10:56 24.3 °C 19.6 °C 1010.5 hPa ENE 1.4 km/h 6.4 km/h 75% 0.0 mm 287 W/m2
11:01 24.3 °C 19.6 °C 1010.8 hPa ENE 3.2 km/h 4.8 km/h 75% 0.0 mm 359 W/m2
11:06 24.4 °C 19.7 °C 1010.5 hPa Calm   3.2 km/h 75% 0.0 mm 745 W/m2
11:11 24.6 °C 19.7 °C 1010.5 hPa SE 1.4 km/h 9.7 km/h 74% 0.0 mm 279 W/m2
11:16 24.5 °C 19.8 °C 1010.5 hPa NNE 1.4 km/h 3.2 km/h 75% 0.0 mm 352 W/m2
11:21 24.6 °C 19.9 °C 1010.5 hPa ESE 1.4 km/h 1.6 km/h 75% 0.0 mm 863 W/m2
11:26 24.9 °C 19.9 °C 1010.5 hPa Calm   4.8 km/h 74% 0.0 mm 281 W/m2
11:31 25.1 °C 19.9 °C 1010.5 hPa North 1.4 km/h 3.2 km/h 73% 0.0 mm 186 W/m2
11:36 25 °C 19.6 °C 1010.5 hPa NW 1.4 km/h 3.2 km/h 72% 0.0 mm 396 W/m2
11:41 25.1 °C 19.7 °C 1010.5 hPa West 1.4 km/h 4.8 km/h 72% 0.0 mm 856 W/m2
11:46 25 °C 19.6 °C 1010.2 hPa WNW 1.4 km/h 3.2 km/h 72% 0.0 mm 745 W/m2
11:51 25.2 °C 19.8 °C 1010.5 hPa Calm   3.2 km/h 72% 0.0 mm 745 W/m2
11:56 25.3 °C 19.7 °C 1010.5 hPa West 1.4 km/h 4.8 km/h 71% 0.0 mm 255 W/m2
12:01 25.4 °C 20 °C 1010.5 hPa Calm   3.2 km/h 72% 0.0 mm 323 W/m2
12:06 25.7 °C 20 °C 1010.2 hPa Calm   4.8 km/h 71% 0.0 mm 504 W/m2
12:11 26.1 °C 20.4 °C 1010.2 hPa ESE 6.4 km/h 8 km/h 71% 0.0 mm 559 W/m2
12:16 25.9 °C 19.5 °C 1010.5 hPa NW 3.2 km/h 3.2 km/h 68% 0.0 mm 265 W/m2
12:21 25.8 °C 19.9 °C 1010.2 hPa ESE 3.2 km/h 9.7 km/h 70% 0.0 mm 287 W/m2
12:26 25.8 °C 19.7 °C 1010.2 hPa East 4.7 km/h 9.7 km/h 69% 0.0 mm 213 W/m2
12:31 25.7 °C 19.3 °C 1010.2 hPa Calm   1.6 km/h 68% 0.0 mm 234 W/m2
12:36 25.7 °C 19.6 °C 1010.2 hPa Calm   9.7 km/h 69% 0.0 mm 243 W/m2
12:41 25.8 °C 19.9 °C 1010.2 hPa Calm   4.8 km/h 70% 0.0 mm 995 W/m2
12:46 26.2 °C 19.8 °C 1010.2 hPa Calm   6.4 km/h 68% 0.0 mm 891 W/m2
12:51 26.7 °C 19.3 °C 1010.2 hPa ENE 1.4 km/h 3.2 km/h 64% 0.0 mm 998 W/m2
12:56 26.9 °C 19.8 °C 1009.8 hPa East 4.7 km/h 11.3 km/h 65% 0.0 mm 816 W/m2
13:01 27.2 °C 19.5 °C 1009.8 hPa East 4.7 km/h 8 km/h 63% 0.0 mm 253 W/m2
13:06 27.2 °C 19 °C 1009.8 hPa North 3.2 km/h 4.8 km/h 61% 0.0 mm 974 W/m2
13:11 27.2 °C 19.3 °C 1009.8 hPa WNW 4.7 km/h 4.8 km/h 62% 0.0 mm 946 W/m2
13:16 27.1 °C 19.2 °C 1009.8 hPa ENE 4.7 km/h 4.8 km/h 62% 0.0 mm 977 W/m2
13:21 27.2 °C 19 °C 1009.8 hPa Calm   4.8 km/h 61% 0.0 mm 1023 W/m2
13:26 27.4 °C 19.2 °C 1009.8 hPa Calm   8 km/h 61% 0.0 mm 1011 W/m2
13:31 27.8 °C 19.3 °C 1009.5 hPa SE 4.7 km/h 6.4 km/h 60% 0.0 mm 983 W/m2
13:36 28.1 °C 18.8 °C 1009.8 hPa ENE 3.2 km/h 12.9 km/h 57% 0.0 mm 937 W/m2
13:41 28 °C 17.8 °C 1009.5 hPa West 3.2 km/h 3.2 km/h 54% 0.0 mm 923 W/m2
13:46 27.9 °C 18.6 °C 1009.5 hPa NW 1.4 km/h 4.8 km/h 57% 0.0 mm 942 W/m2
13:51 28.1 °C 18.8 °C 1009.1 hPa East 1.4 km/h 1.6 km/h 57% 0.0 mm 942 W/m2
13:56 28.2 °C 18 °C 1009.1 hPa West 6.4 km/h 11.3 km/h 54% 0.0 mm 953 W/m2
14:01 28.2 °C 18.3 °C 1009.1 hPa West 3.2 km/h 9.7 km/h 55% 0.0 mm 949 W/m2
14:06 28.2 °C 18.9 °C 1009.1 hPa NE 3.2 km/h 4.8 km/h 57% 0.0 mm 972 W/m2
14:11 28.3 °C 18.4 °C 1009.1 hPa SE 1.4 km/h 11.3 km/h 55% 0.0 mm 947 W/m2
14:16 28.4 °C 19.3 °C 1009.1 hPa SSW 4.7 km/h 6.4 km/h 58% 0.0 mm 972 W/m2
14:21 28.6 °C 18.4 °C 1009.1 hPa ESE 1.4 km/h 11.3 km/h 54% 0.0 mm 967 W/m2
14:26 28.5 °C 18 °C 1009.1 hPa Calm   4.8 km/h 53% 0.0 mm 951 W/m2
14:31 28.6 °C 17.8 °C 1008.8 hPa NNW 3.2 km/h 6.4 km/h 52% 0.0 mm 946 W/m2
14:36 28.8 °C 18.6 °C 1008.8 hPa SE 4.7 km/h 6.4 km/h 54% 0.0 mm 965 W/m2
14:41 29 °C 18.7 °C 1008.8 hPa NW 3.2 km/h 6.4 km/h 54% 0.0 mm 969 W/m2
14:46 29.3 °C 18.7 °C 1008.8 hPa ESE 6.4 km/h 8 km/h 53% 0.0 mm 960 W/m2
14:51 29.3 °C 19 °C 1008.5 hPa East 1.4 km/h 6.4 km/h 54% 0.0 mm 958 W/m2
14:56 29.4 °C 18.8 °C 1008.5 hPa East 4.7 km/h 9.7 km/h 53% 0.0 mm 977 W/m2
15:01 29.5 °C 18.3 °C 1008.5 hPa Calm   4.8 km/h 51% 0.0 mm 1002 W/m2
15:06 29.3 °C 18.4 °C 1008.5 hPa ESE 3.2 km/h 3.2 km/h 52% 0.0 mm 204 W/m2
15:11 29.2 °C 18.3 °C 1008.5 hPa East 1.4 km/h 3.2 km/h 52% 0.0 mm 1014 W/m2
15:16 29.2 °C 18.3 °C 1008.5 hPa ESE 4.7 km/h 4.8 km/h 52% 0.0 mm 374 W/m2
15:21 29.3 °C 18.4 °C 1008.5 hPa ESE 1.4 km/h 3.2 km/h 52% 0.0 mm 969 W/m2
15:26 29.6 °C 18.1 °C 1008.5 hPa East 4.7 km/h 6.4 km/h 50% 0.0 mm 1011 W/m2
15:31 29.3 °C 17.5 °C 1008.5 hPa WSW 1.4 km/h 6.4 km/h 49% 0.0 mm 237 W/m2
15:36 29 °C 18.5 °C 1008.1 hPa ENE 3.2 km/h 4.8 km/h 53% 0.0 mm 227 W/m2
15:41 28.7 °C 17.2 °C 1008.1 hPa Calm   3.2 km/h 50% 0.0 mm 322 W/m2
15:46 28.7 °C 17.6 °C 1008.1 hPa West 4.7 km/h 4.8 km/h 51% 0.0 mm 257 W/m2
15:51 28.6 °C 17.5 °C 1008.1 hPa Calm   1.6 km/h 51% 0.0 mm 343 W/m2
15:57 28.7 °C 18.5 °C 1008.1 hPa East 1.4 km/h 1.6 km/h 54% 0.0 mm 311 W/m2
16:02 28.8 °C 18 °C 1008.1 hPa West 3.2 km/h 3.2 km/h 52% 0.0 mm 269 W/m2
16:07 28.9 °C 18.4 °C 1007.8 hPa West 1.4 km/h 3.2 km/h 53% 0.0 mm 330 W/m2
16:12 28.9 °C 19 °C 1007.8 hPa NE 1.4 km/h 3.2 km/h 55% 0.0 mm 295 W/m2
16:17 29.1 °C 18.5 °C 1007.8 hPa Calm     53% 0.0 mm 341 W/m2
16:22 29.2 °C 18.6 °C 1007.8 hPa SE 6.4 km/h 6.4 km/h 53% 0.0 mm 373 W/m2
16:27 29.3 °C 18.1 °C 1007.8 hPa Calm   1.6 km/h 51% 0.0 mm 835 W/m2
16:32 29.5 °C 18 °C 1007.5 hPa ENE 3.2 km/h 4.8 km/h 50% 0.0 mm 225 W/m2
16:37 29.7 °C 18.5 °C 1007.8 hPa SSW 1.4 km/h 4.8 km/h 51% 0.0 mm 853 W/m2
16:42 30.2 °C 18.3 °C 1007.5 hPa SSE 1.4 km/h 8 km/h 49% 0.0 mm 831 W/m2
16:47 30.3 °C 18.1 °C 1007.5 hPa ESE 1.4 km/h 6.4 km/h 48% 0.0 mm 220 W/m2
16:52 30.1 °C 18.2 °C 1007.5 hPa ESE 1.4 km/h 4.8 km/h 49% 0.0 mm 204 W/m2
16:57 29.9 °C 18.7 °C 1007.5 hPa WNW 3.2 km/h 3.2 km/h 51% 0.0 mm 176 W/m2
17:02 29.6 °C 18.1 °C 1007.5 hPa East 3.2 km/h 4.8 km/h 50% 0.0 mm 186 W/m2
17:07 29.4 °C 18.5 °C 1007.5 hPa Calm   3.2 km/h 52% 0.0 mm 246 W/m2
17:12 29.4 °C 18.2 °C 1007.5 hPa Calm   4.8 km/h 51% 0.0 mm 237 W/m2
17:17 29.4 °C 18.2 °C 1007.1 hPa East 4.7 km/h 4.8 km/h 51% 0.0 mm 241 W/m2
17:22 29.4 °C 18.2 °C 1007.1 hPa ESE 1.4 km/h 4.8 km/h 51% 0.0 mm 445 W/m2
17:27 29.4 °C 18.8 °C 1007.1 hPa Calm   3.2 km/h 53% 0.0 mm 127 W/m2
17:32 29.3 °C 18.7 °C 1007.1 hPa Calm   1.6 km/h 53% 0.0 mm 153 W/m2
17:37 29.3 °C 19.6 °C 1007.1 hPa ENE 1.4 km/h 1.6 km/h 56% 0.0 mm 255 W/m2
17:42 28.9 °C 19.2 °C 1007.1 hPa WNW 1.4 km/h 6.4 km/h 56% 0.0 mm 125 W/m2
17:47 28.6 °C 20.3 °C 1007.1 hPa Calm     61% 0.0 mm 107 W/m2
17:52 28.2 °C 20.2 °C 1007.1 hPa Calm   6.4 km/h 62% 0.0 mm 109 W/m2
17:57 27.8 °C 20.1 °C 1006.8 hPa West 3.2 km/h 3.2 km/h 63% 0.0 mm 98 W/m2
18:02 27.4 °C 20 °C 1006.8 hPa Calm   1.6 km/h 64% 0.0 mm 90 W/m2
18:07 27.2 °C 20 °C 1006.8 hPa West 3.2 km/h 3.2 km/h 65% 0.0 mm 102 W/m2
18:12 27.1 °C 20.2 °C 1006.8 hPa Calm     66% 0.0 mm 114 W/m2
18:17 27 °C 20.1 °C 1006.8 hPa Calm     66% 0.0 mm 137 W/m2
18:22 27 °C 19.6 °C 1006.8 hPa Calm   3.2 km/h 64% 0.0 mm 165 W/m2
18:27 27.1 °C 20 °C 1006.4 hPa Calm   1.6 km/h 65% 0.0 mm 329 W/m2
18:32 27.4 °C 20 °C 1006.4 hPa Calm     64% 0.0 mm 237 W/m2
18:37 27.7 °C 20 °C 1006.4 hPa Calm   3.2 km/h 63% 0.0 mm 188 W/m2
18:42 27.9 °C 20.2 °C 1006.4 hPa Calm   1.6 km/h 63% 0.0 mm 197 W/m2
18:47 28.2 °C 21 °C 1006.4 hPa Calm   3.2 km/h 65% 0.0 mm 169 W/m2
18:52 28.2 °C 20.5 °C 1006.4 hPa Calm   1.6 km/h 63% 0.0 mm 139 W/m2
18:57 28.2 °C 20 °C 1006.4 hPa West 1.4 km/h 3.2 km/h 61% 0.0 mm 102 W/m2
19:02 28.1 °C 19.9 °C 1006.4 hPa West 1.4 km/h 1.6 km/h 61% 0.0 mm 97 W/m2
19:07 28.4 °C 20.4 °C 1006.1 hPa Calm   3.2 km/h 62% 0.0 mm 104 W/m2
19:12 28.7 °C 20.4 °C 1006.1 hPa Calm   1.6 km/h 61% 0.0 mm 93 W/m2
19:17 28.9 °C 20.1 °C 1006.1 hPa Calm   1.6 km/h 59% 0.0 mm 105 W/m2
19:22 28.9 °C 20.4 °C 1006.1 hPa Calm     60% 0.0 mm 105 W/m2
19:27 28.8 °C 20.3 °C 1006.1 hPa Calm   1.6 km/h 60% 0.0 mm 105 W/m2
19:32 28.6 °C 20.3 °C 1006.1 hPa West 1.4 km/h 1.6 km/h 61% 0.0 mm 104 W/m2
19:37 28.2 °C 20.2 °C 1006.1 hPa Calm   1.6 km/h 62% 0.0 mm 102 W/m2
19:42 27.9 °C 19.7 °C 1006.1 hPa West 1.4 km/h 3.2 km/h 61% 0.0 mm 109 W/m2
19:47 27.8 °C 19.6 °C 1006.1 hPa WSW 1.4 km/h 3.2 km/h 61% 0.0 mm 113 W/m2
19:52 27.6 °C 19.7 °C 1006.1 hPa WSW 1.4 km/h 3.2 km/h 62% 0.0 mm 109 W/m2
19:57 27.4 °C 19.7 °C 1006.1 hPa Calm   1.6 km/h 63% 0.0 mm 105 W/m2
20:02 27.3 °C 19.6 °C 1006.1 hPa Calm   1.6 km/h 63% 0.0 mm 91 W/m2
20:07 27.2 °C 19.8 °C 1006.4 hPa Calm     64% 0.0 mm 76 W/m2
20:12 27.1 °C 19.7 °C 1006.4 hPa Calm   1.6 km/h 64% 0.0 mm 63 W/m2
20:17 26.9 °C 19.8 °C 1006.1 hPa Calm   1.6 km/h 65% 0.0 mm 53 W/m2
20:22 26.8 °C 19.9 °C 1006.1 hPa Calm     66% 0.0 mm 44 W/m2
20:27 26.7 °C 19.6 °C 1006.1 hPa Calm   1.6 km/h 65% 0.0 mm 33 W/m2
20:32 26.6 °C 19.7 °C 1006.1 hPa Calm     66% 0.0 mm 28 W/m2
20:37 26.3 °C 19.2 °C 1006.1 hPa Calm     65% 0.0 mm 25 W/m2
20:42 26.2 °C 19.3 °C 1005.8 hPa Calm     66% 0.0 mm 21 W/m2
20:47 25.9 °C 19.1 °C 1005.8 hPa Calm   1.6 km/h 66% 0.0 mm 19 W/m2
20:52 25.8 °C 19.2 °C 1005.8 hPa Calm   1.6 km/h 67% 0.0 mm 14 W/m2
20:57 25.7 °C 18.6 °C 1005.8 hPa Calm   1.6 km/h 65% 0.0 mm 12 W/m2
21:02 25.7 °C 19.1 °C 1005.8 hPa Calm     67% 0.0 mm 9 W/m2
21:07 25.6 °C 19.3 °C 1005.8 hPa Calm   1.6 km/h 68% 0.0 mm 7 W/m2
21:12 25.4 °C 19.1 °C 1005.4 hPa Calm     68% 0.0 mm 5 W/m2
21:17 25.3 °C 19 °C 1005.4 hPa WSW 1.4 km/h 3.2 km/h 68% 0.0 mm 0 W/m2
21:22 25.1 °C 19.2 °C 1005.4 hPa Calm     70% 0.0 mm 0 W/m2
21:27 25 °C 19.1 °C 1005.8 hPa West 4.7 km/h 4.8 km/h 70% 0.0 mm 0 W/m2
21:32 24.5 °C 19.3 °C 1006.8 hPa NE 4.7 km/h 35.4 km/h 73% 0.5 mm 0 W/m2
21:37 23.1 °C 19.3 °C 1007.1 hPa WSW 20.9 km/h 29 km/h 79% 5.1 mm 0 W/m2
21:42 21.2 °C 18.2 °C 1007.1 hPa West 9.7 km/h 33.8 km/h 83% 7.4 mm 0 W/m2
21:47 20.3 °C 17.7 °C 1006.4 hPa WSW 4.7 km/h 14.5 km/h 85% 9.7 mm 0 W/m2
21:52 19.7 °C 17.3 °C 1006.4 hPa West 4.7 km/h 9.7 km/h 86% 9.7 mm 0 W/m2
21:57 19.3 °C 17.1 °C 1006.4 hPa West 9.7 km/h 14.5 km/h 87% 9.7 mm 0 W/m2
22:02 19.1 °C 17.1 °C 1006.8 hPa WSW 6.4 km/h 16.1 km/h 88% 9.7 mm 0 W/m2
22:07 19 °C 17.3 °C 1007.1 hPa WNW 4.7 km/h 17.7 km/h 90% 9.7 mm 0 W/m2
22:12 18.9 °C 17.2 °C 1007.5 hPa WNW 4.7 km/h 17.7 km/h 90% 9.7 mm 0 W/m2
22:17 18.8 °C 16.9 °C 1007.8 hPa SW 1.4 km/h 6.4 km/h 89% 9.7 mm 0 W/m2
22:22 18.8 °C 17.1 °C 1007.8 hPa East 1.4 km/h 17.7 km/h 90% 9.7 mm 0 W/m2
22:27 18.7 °C 17 °C 1007.8 hPa WNW 1.4 km/h 3.2 km/h 90% 9.7 mm 0 W/m2
22:32 18.7 °C 17 °C 1007.8 hPa West 1.4 km/h 4.8 km/h 90% 9.1 mm 0 W/m2
22:37 18.7 °C 17 °C 1007.8 hPa West 1.4 km/h 3.2 km/h 90% 4.3 mm 0 W/m2
22:42 18.7 °C 17.2 °C 1008.1 hPa Calm   3.2 km/h 91% 2.3 mm 0 W/m2
22:47 18.6 °C 16.9 °C 1008.1 hPa Calm   1.6 km/h 90% 0.0 mm 0 W/m2
22:52 18.7 °C 17 °C 1008.1 hPa Calm   3.2 km/h 90% 0.0 mm 0 W/m2
22:57 18.7 °C 17 °C 1008.1 hPa Calm   3.2 km/h 90% 0.0 mm 0 W/m2
23:02 18.7 °C 17.2 °C 1008.1 hPa NW 1.4 km/h 1.6 km/h 91% 0.0 mm 0 W/m2
23:07 18.6 °C 17.1 °C 1008.5 hPa Calm   3.2 km/h 91% 0.0 mm 0 W/m2
23:12 18.6 °C 17.3 °C 1008.5 hPa NW 3.2 km/h 3.2 km/h 92% 0.0 mm 0 W/m2
23:17 18.5 °C 17.2 °C 1008.5 hPa NW 1.4 km/h 1.6 km/h 92% 0.0 mm 0 W/m2
23:22 18.4 °C 17.1 °C 1008.5 hPa NW 1.4 km/h 1.6 km/h 92% 0.0 mm 0 W/m2
23:27 18.4 °C 17.2 °C 1008.5 hPa NW 1.4 km/h 1.6 km/h 93% 0.0 mm 0 W/m2
23:32 18.3 °C 17 °C 1008.5 hPa WNW 3.2 km/h 3.2 km/h 92% 0.0 mm 0 W/m2
23:37 18.2 °C 17 °C 1008.1 hPa Calm   3.2 km/h 93% 0.0 mm 0 W/m2
23:42 18.2 °C 17 °C 1008.1 hPa Calm   1.6 km/h 93% 0.0 mm 0 W/m2
23:47 18.2 °C 17 °C 1008.5 hPa Calm   1.6 km/h 93% 0.0 mm 0 W/m2
23:52 18.1 °C 16.9 °C 1008.5 hPa WSW 1.4 km/h 1.6 km/h 93% 0.0 mm 0 W/m2
23:57 18 °C 16.9 °C 1008.1 hPa Calm     93% 0.0 mm 0 W/m2
Juneau County Weather
Compliments of Weather Underground - 4 mb